createdAt,value
2018-12-09T00:01:27.660Z,8.20
2018-12-09T00:03:55.986Z,8.10
2018-12-09T00:06:24.292Z,8.10
2018-12-09T00:08:52.518Z,8.20
2018-12-09T00:11:20.832Z,8.20
2018-12-09T00:13:49.021Z,8.20
2018-12-09T00:16:18.287Z,8.20
2018-12-09T00:18:46.571Z,8.20
2018-12-09T00:21:14.748Z,8.30
2018-12-09T00:23:42.944Z,8.40
2018-12-09T00:26:11.135Z,8.40
2018-12-09T00:28:39.321Z,8.40
2018-12-09T00:31:07.496Z,8.30
2018-12-09T00:33:35.692Z,8.30
2018-12-09T00:36:04.005Z,8.30
2018-12-09T00:38:32.204Z,8.40
2018-12-09T00:41:00.384Z,8.40
2018-12-09T00:43:28.685Z,8.40
2018-12-09T00:46:00.163Z,8.40
2018-12-09T00:48:28.370Z,8.40
2018-12-09T00:50:56.654Z,8.40
2018-12-09T00:53:25.241Z,8.40
2018-12-09T00:55:53.514Z,8.50
2018-12-09T00:58:21.717Z,8.50
2018-12-09T01:00:50.145Z,8.60
2018-12-09T01:03:18.316Z,8.60
2018-12-09T01:05:46.592Z,8.60
2018-12-09T01:08:14.788Z,8.70
2018-12-09T01:10:43.069Z,8.70
2018-12-09T01:13:11.255Z,8.70
2018-12-09T01:15:39.549Z,8.80
2018-12-09T01:18:07.832Z,8.80
2018-12-09T01:20:36.016Z,8.90
2018-12-09T01:23:04.258Z,8.90
2018-12-09T01:25:32.556Z,8.90
2018-12-09T01:28:00.754Z,8.90
2018-12-09T01:30:28.943Z,9.00
2018-12-09T01:32:57.124Z,9.00
2018-12-09T01:35:25.504Z,9.10
2018-12-09T01:37:53.701Z,9.00
2018-12-09T01:40:22.776Z,9.00
2018-12-09T01:42:51.064Z,8.90
2018-12-09T01:45:19.525Z,8.90
2018-12-09T01:47:47.708Z,8.90
2018-12-09T01:50:16.003Z,8.90
2018-12-09T01:52:50.723Z,8.90
2018-12-09T01:55:19.095Z,9.00
2018-12-09T01:57:47.406Z,9.00
2018-12-09T02:00:16.017Z,8.90
2018-12-09T02:02:44.637Z,8.90
2018-12-09T02:05:12.918Z,8.90
2018-12-09T02:07:41.497Z,8.90
2018-12-09T02:10:09.789Z,8.90
2018-12-09T02:12:38.124Z,9.00
2018-12-09T02:15:06.484Z,8.90
2018-12-09T02:17:34.848Z,8.90
2018-12-09T02:20:03.128Z,8.90
2018-12-09T02:22:31.432Z,8.90
2018-12-09T02:24:59.697Z,8.90
2018-12-09T02:27:27.971Z,8.90
2018-12-09T02:29:56.448Z,8.90
2018-12-09T02:32:24.764Z,8.90
2018-12-09T02:34:53.161Z,8.80
2018-12-09T02:37:21.662Z,8.80
2018-12-09T02:39:49.865Z,8.90
2018-12-09T02:42:18.441Z,8.90
2018-12-09T02:44:46.724Z,8.90
2018-12-09T02:47:14.945Z,9.00
2018-12-09T02:49:43.135Z,9.00
2018-12-09T02:52:11.712Z,9.00
2018-12-09T02:54:40.001Z,8.90
2018-12-09T02:57:08.282Z,8.90
2018-12-09T02:59:36.554Z,8.90
2018-12-09T03:02:05.633Z,9.00
2018-12-09T03:04:34.000Z,9.00
2018-12-09T03:07:02.185Z,9.00
2018-12-09T03:09:30.406Z,8.90
2018-12-09T03:11:58.734Z,8.80
2018-12-09T03:14:27.470Z,8.70
2018-12-09T03:16:55.748Z,8.70
2018-12-09T03:19:23.944Z,8.60
2018-12-09T03:21:52.241Z,8.60
2018-12-09T03:24:20.847Z,8.50
2018-12-09T03:26:49.128Z,8.40
2018-12-09T03:29:17.413Z,8.40
2018-12-09T03:31:45.725Z,8.40
2018-12-09T03:34:14.449Z,8.50
2018-12-09T03:36:42.731Z,8.50
2018-12-09T03:39:11.005Z,8.50
2018-12-09T03:41:39.392Z,8.50
2018-12-09T03:44:07.665Z,8.50
2018-12-09T03:46:35.961Z,8.50
2018-12-09T03:49:05.308Z,8.50
2018-12-09T03:51:33.601Z,8.40
2018-12-09T03:54:01.784Z,8.40
2018-12-09T03:56:30.392Z,8.50
2018-12-09T03:58:59.193Z,8.60
2018-12-09T04:01:27.376Z,8.60
2018-12-09T04:03:55.653Z,8.70
2018-12-09T04:06:23.966Z,8.70
2018-12-09T04:08:52.245Z,8.70
2018-12-09T04:11:20.447Z,8.90
2018-12-09T04:13:50.830Z,8.90
2018-12-09T04:16:19.145Z,8.90
2018-12-09T04:18:47.345Z,9.00
2018-12-09T04:21:15.661Z,9.00
2018-12-09T04:23:44.366Z,9.00
2018-12-09T04:26:12.570Z,9.10
2018-12-09T04:28:40.749Z,9.10
2018-12-09T04:31:09.038Z,9.10
2018-12-09T04:33:37.593Z,9.10
2018-12-09T04:36:05.972Z,9.00
2018-12-09T04:38:34.152Z,9.00
2018-12-09T04:41:02.446Z,9.00
2018-12-09T04:43:30.732Z,8.90
2018-12-09T04:45:58.916Z,8.90
2018-12-09T04:48:27.188Z,8.80
2018-12-09T04:50:55.372Z,8.60
2018-12-09T04:53:23.896Z,8.50
2018-12-09T04:55:52.088Z,8.50
2018-12-09T04:58:20.305Z,8.50
2018-12-09T05:00:54.497Z,8.50
2018-12-09T05:03:23.745Z,8.50
2018-12-09T05:05:52.017Z,8.50
2018-12-09T05:08:20.377Z,8.60
2018-12-09T05:10:48.666Z,8.60
2018-12-09T05:13:16.960Z,8.70
2018-12-09T05:15:45.937Z,8.70
2018-12-09T05:18:14.208Z,8.70
2018-12-09T05:20:42.437Z,8.50
2018-12-09T05:23:10.628Z,8.30
2018-12-09T05:25:38.819Z,8.00
2018-12-09T05:28:07.000Z,7.90
2018-12-09T05:30:35.258Z,7.80
2018-12-09T05:33:04.074Z,7.70
2018-12-09T05:35:32.278Z,7.70
2018-12-09T05:38:00.560Z,7.70
2018-12-09T05:40:28.756Z,7.70
2018-12-09T05:42:56.936Z,7.70
2018-12-09T05:45:25.612Z,7.20
2018-12-09T05:47:53.805Z,7.10
2018-12-09T05:50:21.992Z,7.00
2018-12-09T05:52:50.208Z,6.90
2018-12-09T05:55:18.471Z,6.90
2018-12-09T05:57:47.048Z,7.00
2018-12-09T06:00:15.320Z,6.90
2018-12-09T06:02:52.424Z,6.90
2018-12-09T06:05:20.714Z,6.90
2018-12-09T06:07:49.625Z,6.80
2018-12-09T06:10:17.945Z,6.60
2018-12-09T06:12:46.159Z,6.50
2018-12-09T06:15:14.522Z,6.50
2018-12-09T06:17:42.717Z,6.60
2018-12-09T06:20:11.380Z,6.60
2018-12-09T06:22:39.748Z,6.60
2018-12-09T06:25:08.228Z,6.60
2018-12-09T06:27:36.505Z,6.70
2018-12-09T06:30:06.632Z,6.70
2018-12-09T06:32:34.828Z,6.70
2018-12-09T06:35:03.013Z,6.60
2018-12-09T06:37:31.257Z,6.60
2018-12-09T06:39:59.486Z,6.50
2018-12-09T06:42:27.791Z,6.50
2018-12-09T06:44:56.105Z,6.40
2018-12-09T06:47:24.413Z,6.50
2018-12-09T06:49:52.625Z,6.50
2018-12-09T06:52:21.018Z,6.40
2018-12-09T06:54:49.297Z,6.30
2018-12-09T06:57:17.520Z,6.20
2018-12-09T06:59:45.705Z,6.30
2018-12-09T07:02:13.984Z,6.40
2018-12-09T07:04:42.164Z,6.40
2018-12-09T07:07:10.440Z,6.40
2018-12-09T07:09:38.913Z,6.20
2018-12-09T07:12:07.205Z,6.20
2018-12-09T07:14:35.484Z,6.10
2018-12-09T07:17:03.853Z,6.10
2018-12-09T07:19:32.129Z,6.10
2018-12-09T07:22:00.613Z,6.00
2018-12-09T07:24:28.905Z,6.00
2018-12-09T07:26:57.130Z,6.00
2018-12-09T07:29:25.327Z,6.00
2018-12-09T07:31:53.617Z,6.10
2018-12-09T07:34:22.188Z,6.10
2018-12-09T07:36:50.565Z,6.10
2018-12-09T07:39:18.840Z,6.10
2018-12-09T07:41:47.028Z,6.00
2018-12-09T07:44:15.254Z,6.00
2018-12-09T07:46:43.825Z,6.10
2018-12-09T07:49:12.204Z,6.10
2018-12-09T07:51:40.541Z,6.10
2018-12-09T07:54:08.729Z,6.20
2018-12-09T07:56:36.940Z,6.20
2018-12-09T07:59:07.573Z,6.20
2018-12-09T08:01:35.984Z,6.30
2018-12-09T08:04:04.182Z,6.30
2018-12-09T08:06:32.512Z,6.30
2018-12-09T08:09:01.412Z,6.40
2018-12-09T08:11:29.832Z,6.30
2018-12-09T08:13:58.060Z,6.30
2018-12-09T08:16:26.488Z,6.20
2018-12-09T08:18:54.690Z,6.30
2018-12-09T08:21:23.057Z,6.30
2018-12-09T08:23:51.253Z,6.40
2018-12-09T08:26:19.529Z,6.40
2018-12-09T08:28:47.725Z,6.40
2018-12-09T08:31:15.913Z,6.50
2018-12-09T08:33:44.320Z,6.40
2018-12-09T08:36:12.621Z,6.40
2018-12-09T08:38:40.833Z,6.30
2018-12-09T08:41:09.117Z,6.30
2018-12-09T08:43:37.341Z,6.20
2018-12-09T08:46:05.652Z,6.30
2018-12-09T08:48:34.109Z,6.30
2018-12-09T08:51:02.400Z,6.20
2018-12-09T08:53:30.650Z,6.30
2018-12-09T08:55:58.949Z,6.30
2018-12-09T08:58:27.142Z,6.40
2018-12-09T09:00:56.304Z,6.40
2018-12-09T09:03:24.836Z,6.30
2018-12-09T09:05:53.853Z,6.40
2018-12-09T09:08:22.572Z,6.50
2018-12-09T09:10:50.767Z,6.50
2018-12-09T09:13:18.968Z,6.60
2018-12-09T09:15:47.168Z,6.60
2018-12-09T09:18:15.405Z,6.60
2018-12-09T09:20:43.657Z,6.60
2018-12-09T09:23:11.905Z,6.50
2018-12-09T09:25:41.001Z,6.60
2018-12-09T09:28:09.181Z,6.60
2018-12-09T09:30:37.653Z,6.70
2018-12-09T09:33:05.848Z,6.70
2018-12-09T09:35:34.461Z,6.80
2018-12-09T09:38:03.072Z,6.80
2018-12-09T09:40:31.311Z,6.80
2018-12-09T09:42:59.514Z,6.90
2018-12-09T09:45:27.705Z,7.00
2018-12-09T09:47:56.133Z,7.00
2018-12-09T09:50:24.317Z,7.00
2018-12-09T09:52:52.509Z,7.10
2018-12-09T09:55:20.685Z,7.10
2018-12-09T09:57:49.030Z,7.10
2018-12-09T10:00:17.208Z,7.20
2018-12-09T10:02:45.445Z,7.10
2018-12-09T10:05:13.712Z,7.10
2018-12-09T10:07:41.911Z,7.20
2018-12-09T10:10:10.106Z,7.20
2018-12-09T10:12:38.304Z,7.20
2018-12-09T10:15:06.577Z,7.20
2018-12-09T10:17:34.981Z,7.20
2018-12-09T10:20:03.581Z,7.30
2018-12-09T10:22:31.793Z,7.40
2018-12-09T10:25:00.065Z,7.40
2018-12-09T10:27:28.240Z,7.40
2018-12-09T10:29:56.430Z,7.50
2018-12-09T10:32:24.603Z,7.40
2018-12-09T10:34:52.781Z,7.40
2018-12-09T10:37:20.949Z,7.40
2018-12-09T10:39:49.133Z,7.50
2018-12-09T10:42:17.401Z,7.40
2018-12-09T10:44:45.860Z,7.40
2018-12-09T10:47:14.225Z,7.50
2018-12-09T10:49:42.400Z,7.50
2018-12-09T10:52:10.567Z,7.50
2018-12-09T10:54:38.758Z,7.50
2018-12-09T10:57:07.021Z,7.50
2018-12-09T10:59:35.209Z,7.40
2018-12-09T11:02:08.804Z,7.40
2018-12-09T11:04:36.984Z,7.50
2018-12-09T11:07:05.164Z,7.40
2018-12-09T11:09:33.393Z,7.40
2018-12-09T11:12:01.600Z,7.50
2018-12-09T11:14:29.792Z,7.30
2018-12-09T11:16:57.984Z,7.30
2018-12-09T11:19:26.164Z,7.30
2018-12-09T11:21:54.332Z,7.30
2018-12-09T11:24:22.510Z,7.30
2018-12-09T11:26:50.688Z,7.20
2018-12-09T11:29:18.865Z,7.20
2018-12-09T11:31:47.032Z,7.30
2018-12-09T11:34:15.229Z,7.30
2018-12-09T11:36:43.404Z,7.30
2018-12-09T11:39:11.581Z,7.30
2018-12-09T11:41:39.772Z,7.30
2018-12-09T11:44:08.043Z,7.30
2018-12-09T11:46:36.316Z,7.30
2018-12-09T11:49:04.625Z,7.40
2018-12-09T11:51:32.829Z,7.40
2018-12-09T11:54:01.064Z,7.30
2018-12-09T11:56:29.237Z,7.30
2018-12-09T11:58:57.504Z,7.20
2018-12-09T12:01:25.671Z,7.30
2018-12-09T12:03:53.853Z,7.30
2018-12-09T12:06:22.108Z,7.20
2018-12-09T12:08:50.288Z,7.10
2018-12-09T12:11:18.747Z,7.10
2018-12-09T12:13:46.925Z,7.10
2018-12-09T12:16:15.116Z,7.10
2018-12-09T12:18:43.347Z,7.00
2018-12-09T12:21:11.556Z,7.00
2018-12-09T12:23:39.864Z,6.80
2018-12-09T12:26:09.121Z,6.90
2018-12-09T12:28:38.487Z,6.80
2018-12-09T12:31:07.227Z,6.70
2018-12-09T12:33:35.550Z,6.70
2018-12-09T12:36:04.382Z,6.70
2018-12-09T12:38:33.074Z,6.70
2018-12-09T12:41:01.329Z,6.80
2018-12-09T12:43:29.914Z,6.80
2018-12-09T12:45:58.766Z,6.80
2018-12-09T12:48:27.540Z,6.70
2018-12-09T12:50:56.149Z,6.70
2018-12-09T12:53:25.376Z,6.70
2018-12-09T12:55:54.704Z,6.60
2018-12-09T12:58:22.859Z,6.50
2018-12-09T13:00:51.592Z,6.50
2018-12-09T13:03:20.246Z,6.60
2018-12-09T13:05:49.078Z,6.60
2018-12-09T13:08:18.067Z,6.60
2018-12-09T13:10:46.609Z,6.70
2018-12-09T13:13:19.960Z,6.80
2018-12-09T13:15:58.253Z,6.90
2018-12-09T13:18:26.596Z,6.70
2018-12-09T13:20:56.157Z,6.80
2018-12-09T13:23:25.917Z,6.70
2018-12-09T13:25:54.817Z,6.70
2018-12-09T13:28:23.369Z,6.60
2018-12-09T13:30:51.946Z,6.60
2018-12-09T13:33:20.246Z,6.60
2018-12-09T13:35:48.711Z,6.70
2018-12-09T13:38:17.651Z,6.70
2018-12-09T13:40:46.281Z,6.70
2018-12-09T13:43:15.277Z,6.60
2018-12-09T13:45:45.487Z,6.70
2018-12-09T13:48:14.295Z,6.70
2018-12-09T13:50:43.478Z,6.70
2018-12-09T13:53:13.018Z,6.80
2018-12-09T13:55:41.845Z,6.70
2018-12-09T13:58:11.176Z,6.70
2018-12-09T14:00:39.730Z,6.70
2018-12-09T14:03:09.006Z,6.70
2018-12-09T14:05:39.248Z,6.80
2018-12-09T14:08:08.256Z,6.80
2018-12-09T14:10:37.416Z,6.80
2018-12-09T14:13:07.313Z,6.80
2018-12-09T14:15:36.761Z,6.90
2018-12-09T14:18:05.990Z,6.90
2018-12-09T14:20:36.369Z,6.90
2018-12-09T14:23:05.212Z,7.00
2018-12-09T14:25:35.219Z,6.80
2018-12-09T14:28:04.219Z,6.80
2018-12-09T14:30:33.404Z,6.90
2018-12-09T14:33:02.909Z,6.90
2018-12-09T14:35:31.167Z,6.90
2018-12-09T14:38:04.167Z,7.00
2018-12-09T14:40:37.590Z,7.00
2018-12-09T14:43:11.790Z,6.90
2018-12-09T14:45:48.892Z,6.90
2018-12-09T14:48:18.569Z,6.80
2018-12-09T14:50:53.813Z,6.80
2018-12-09T14:53:28.096Z,6.80
2018-12-09T14:55:56.597Z,6.80
2018-12-09T14:58:25.003Z,6.80
2018-12-09T15:00:59.337Z,6.80
2018-12-09T15:03:27.764Z,6.70
2018-12-09T15:05:56.510Z,6.80
2018-12-09T15:08:32.949Z,6.70
2018-12-09T15:11:01.461Z,6.60
2018-12-09T15:13:36.618Z,6.50
2018-12-09T15:16:05.202Z,6.40
2018-12-09T15:18:33.577Z,6.40
2018-12-09T15:21:04.855Z,6.40
2018-12-09T15:23:33.806Z,6.30
2018-12-09T15:26:01.993Z,6.20
2018-12-09T15:28:30.264Z,6.20
2018-12-09T15:30:58.470Z,6.10
2018-12-09T15:33:26.722Z,6.20
2018-12-09T15:36:03.506Z,6.30
2018-12-09T15:38:32.181Z,6.40
2018-12-09T15:41:00.429Z,6.40
2018-12-09T15:43:28.641Z,6.30
2018-12-09T15:45:56.949Z,6.20
2018-12-09T15:48:27.974Z,6.20
2018-12-09T15:50:56.627Z,6.10
2018-12-09T15:53:24.824Z,6.10
2018-12-09T15:55:54.267Z,6.00
2018-12-09T15:58:36.136Z,6.00
2018-12-09T16:01:04.507Z,6.10
2018-12-09T16:03:33.785Z,6.00
2018-12-09T16:06:02.018Z,6.00
2018-12-09T16:08:31.179Z,5.90
2018-12-09T16:11:00.195Z,5.80
2018-12-09T16:13:30.861Z,5.90
2018-12-09T16:16:00.859Z,5.90
2018-12-09T16:18:29.567Z,6.00
2018-12-09T16:20:57.972Z,6.10
2018-12-09T16:23:32.249Z,6.10
2018-12-09T16:26:10.236Z,6.10
2018-12-09T16:28:51.949Z,6.20
2018-12-09T16:31:20.338Z,6.10
2018-12-09T16:33:49.787Z,6.10
2018-12-09T16:36:21.726Z,6.20
2018-12-09T16:38:55.053Z,6.20
2018-12-09T16:41:23.389Z,6.20
2018-12-09T16:43:51.645Z,6.20
2018-12-09T16:46:21.062Z,6.10
2018-12-09T16:48:50.360Z,6.10
2018-12-09T16:51:23.419Z,6.10
2018-12-09T16:53:52.910Z,6.00
2018-12-09T16:56:21.164Z,5.90
2018-12-09T16:58:57.461Z,5.80
2018-12-09T17:01:27.462Z,5.80
2018-12-09T17:03:56.235Z,5.70
2018-12-09T17:06:24.823Z,5.70
2018-12-09T17:08:53.189Z,5.80
2018-12-09T17:11:22.341Z,5.80
2018-12-09T17:13:50.658Z,5.70
2018-12-09T17:16:21.567Z,5.70
2018-12-09T17:18:51.224Z,5.70
2018-12-09T17:21:20.317Z,5.70
2018-12-09T17:23:54.464Z,5.70
2018-12-09T17:26:24.724Z,5.70
2018-12-09T17:28:53.139Z,5.80
2018-12-09T17:31:24.585Z,5.80
2018-12-09T17:33:58.909Z,5.80
2018-12-09T17:36:33.777Z,5.80
2018-12-09T17:39:02.588Z,5.80
2018-12-09T17:41:31.089Z,5.80
2018-12-09T17:44:00.433Z,5.70
2018-12-09T17:46:34.231Z,5.70
2018-12-09T17:49:02.668Z,5.80
2018-12-09T17:51:31.073Z,5.90
2018-12-09T17:53:59.517Z,5.90
2018-12-09T17:56:27.737Z,6.00
2018-12-09T17:58:55.998Z,5.90
2018-12-09T18:01:24.547Z,6.00
2018-12-09T18:03:53.081Z,6.10
2018-12-09T18:06:21.507Z,6.10
2018-12-09T18:08:49.874Z,6.10
2018-12-09T18:11:19.316Z,6.10
2018-12-09T18:13:48.465Z,6.10
2018-12-09T18:16:16.973Z,6.10
2018-12-09T18:18:45.196Z,6.00
2018-12-09T18:21:13.528Z,6.10
2018-12-09T18:23:48.675Z,6.10
2018-12-09T18:26:17.014Z,6.20
2018-12-09T18:28:45.363Z,6.30
2018-12-09T18:31:13.622Z,6.20
2018-12-09T18:33:42.647Z,6.10
2018-12-09T18:36:11.391Z,6.20
2018-12-09T18:38:40.049Z,6.10
2018-12-09T18:41:08.413Z,6.10
2018-12-09T18:43:36.654Z,6.30
2018-12-09T18:46:05.075Z,6.30
2018-12-09T18:48:35.416Z,6.30
2018-12-09T18:51:03.708Z,6.30
2018-12-09T18:53:37.180Z,6.40
2018-12-09T18:56:05.788Z,6.30
2018-12-09T18:58:38.265Z,6.20
2018-12-09T19:01:06.593Z,6.30
2018-12-09T19:03:34.965Z,6.40
2018-12-09T19:06:03.382Z,6.30
2018-12-09T19:08:31.909Z,6.30
2018-12-09T19:11:03.663Z,6.30
2018-12-09T19:13:32.466Z,6.30
2018-12-09T19:16:00.905Z,6.30
2018-12-09T19:18:29.669Z,6.40
2018-12-09T19:20:57.969Z,6.50
2018-12-09T19:23:26.376Z,6.50
2018-12-09T19:25:54.686Z,6.40
2018-12-09T19:28:29.783Z,6.50
2018-12-09T19:31:04.823Z,6.50
2018-12-09T19:33:33.303Z,6.60
2018-12-09T19:36:01.543Z,6.50
2018-12-09T19:38:40.141Z,6.40
2018-12-09T19:41:06.112Z,6.40
2018-12-09T19:43:35.411Z,6.50
2018-12-09T19:46:04.129Z,6.50
2018-12-09T19:48:32.611Z,6.50
2018-12-09T19:51:09.989Z,6.50
2018-12-09T19:53:44.791Z,6.50
2018-12-09T19:56:13.357Z,6.50
2018-12-09T19:58:41.593Z,6.50
2018-12-09T20:01:09.822Z,6.50
2018-12-09T20:03:38.048Z,6.60
2018-12-09T20:06:06.614Z,6.50
2018-12-09T20:08:34.879Z,6.50
2018-12-09T20:11:07.176Z,6.50
2018-12-09T20:13:36.460Z,6.50
2018-12-09T20:16:04.698Z,6.50
2018-12-09T20:18:33.104Z,6.60
2018-12-09T20:21:01.330Z,6.60
2018-12-09T20:23:29.545Z,6.50
2018-12-09T20:25:57.872Z,6.50
2018-12-09T20:28:27.385Z,6.50
2018-12-09T20:33:33.906Z,6.50
2018-12-09T20:36:02.295Z,6.50
2018-12-09T20:38:30.572Z,6.50
2018-12-09T20:40:59.268Z,6.50
2018-12-09T20:43:27.553Z,6.40
2018-12-09T20:46:00.729Z,6.40
2018-12-09T20:48:29.151Z,6.40
2018-12-09T20:50:57.551Z,6.40
2018-12-09T20:53:26.073Z,6.40
2018-12-09T20:55:58.248Z,6.40
2018-12-09T20:58:34.248Z,6.50
2018-12-09T21:01:02.927Z,6.50
2018-12-09T21:03:31.180Z,6.40
2018-12-09T21:05:59.400Z,6.50
2018-12-09T21:08:28.795Z,6.30
2018-12-09T21:11:08.156Z,6.40
2018-12-09T21:13:36.992Z,6.50
2018-12-09T21:16:07.518Z,6.50
2018-12-09T21:18:40.768Z,6.50
2018-12-09T21:21:09.832Z,6.40
2018-12-09T21:23:38.930Z,6.50
2018-12-09T21:29:17.666Z,6.50
2018-12-09T21:31:53.153Z,6.20
2018-12-09T21:34:30.396Z,6.00
2018-12-09T21:36:59.045Z,5.90
2018-12-09T21:39:27.309Z,5.90
2018-12-09T21:41:55.751Z,5.90
2018-12-09T21:44:24.065Z,6.00
2018-12-09T21:46:54.319Z,6.00
2018-12-09T21:49:22.589Z,6.10
2018-12-09T21:52:02.339Z,6.10
2018-12-09T21:54:31.024Z,6.00
2018-12-09T21:56:59.290Z,6.00
2018-12-09T21:59:27.509Z,6.00
2018-12-09T22:02:02.321Z,6.00
2018-12-09T22:04:30.884Z,6.00
2018-12-09T22:07:00.048Z,6.10
2018-12-09T22:09:28.983Z,6.00
2018-12-09T22:11:57.467Z,6.00
2018-12-09T22:14:26.027Z,6.00
2018-12-09T22:17:00.608Z,6.00
2018-12-09T22:19:29.922Z,6.00
2018-12-09T22:21:58.241Z,6.00
2018-12-09T22:24:33.166Z,6.00
2018-12-09T22:27:09.986Z,6.00
2018-12-09T22:29:38.740Z,6.10
2018-12-09T22:32:07.143Z,6.10
2018-12-09T22:34:38.996Z,6.10
2018-12-09T22:37:07.674Z,6.10
2018-12-09T22:39:42.683Z,6.10
2018-12-09T22:42:13.475Z,6.20
2018-12-09T22:44:46.655Z,6.10
2018-12-09T22:47:28.208Z,6.10
2018-12-09T22:49:57.219Z,6.20
2018-12-09T22:52:26.444Z,6.10
2018-12-09T22:54:56.132Z,6.20
2018-12-09T22:57:26.266Z,6.20
2018-12-09T22:59:56.014Z,6.20
2018-12-09T23:02:31.333Z,6.20
2018-12-09T23:05:00.187Z,6.20
2018-12-09T23:07:34.241Z,6.20
2018-12-09T23:10:02.708Z,6.10
2018-12-09T23:12:31.145Z,6.10
2018-12-09T23:14:59.459Z,6.10
2018-12-09T23:17:27.782Z,6.10
2018-12-09T23:20:00.006Z,6.10
2018-12-09T23:22:28.251Z,6.20
2018-12-09T23:24:56.741Z,6.30
2018-12-09T23:27:25.130Z,6.30
2018-12-09T23:29:53.329Z,6.30
2018-12-09T23:32:21.796Z,6.30
2018-12-09T23:34:51.746Z,6.30
2018-12-09T23:37:24.187Z,6.00
2018-12-09T23:39:53.663Z,6.00
2018-12-09T23:42:22.306Z,6.00
2018-12-09T23:44:50.821Z,6.10
2018-12-09T23:47:19.704Z,6.00
2018-12-09T23:49:48.999Z,5.90
2018-12-09T23:52:18.457Z,5.90
2018-12-09T23:54:47.563Z,5.90
2018-12-09T23:57:16.793Z,6.00
2018-12-09T23:59:45.577Z,6.00
